ANZ653 NZCH-NZQN
Flight info
| Callsign | ANZ653 |
|---|---|
| Flight time | 0h 43m |
| Altitude | 32000 |
| Route | GUPUT Y266 ELRUV |
| Aircraft | B738/M-SDE2E3FGHIRWXY/LB1 |
Departure
| Time | 2026-04-30 10:57 |
|---|---|
| Airport | Christchurch International Airport (NZCH) |
Arrival
| Time | 2026-04-30 11:41 |
|---|---|
| Airport | Queenstown Airport (NZQN) |
| Time | Latitude | Longitude | Altitude | Speed | Heading |
|---|---|---|---|---|---|
| 2026-04-30 10:41 | -43.48963 | 172.53831 | 114 ft | 0 kts | 39° |
| 2026-04-30 10:49 | -43.48971 | 172.53832 | 113 ft | 1 kts | 340° |
| 2026-04-30 10:52 | -43.48973 | 172.53817 | 112 ft | 3 kts | 223° |
| 2026-04-30 10:53 | -43.49002 | 172.53781 | 112 ft | 7 kts | 235° |
| 2026-04-30 10:53 | -43.49003 | 172.53708 | 115 ft | 9 kts | 287° |
| 2026-04-30 10:53 | -43.48964 | 172.53634 | 113 ft | 11 kts | 311° |
| 2026-04-30 10:53 | -43.48924 | 172.53542 | 113 ft | 13 kts | 268° |
| 2026-04-30 10:54 | -43.48990 | 172.53444 | 113 ft | 16 kts | 217° |
| 2026-04-30 10:54 | -43.49091 | 172.53331 | 113 ft | 20 kts | 222° |
| 2026-04-30 10:54 | -43.49199 | 172.53202 | 114 ft | 21 kts | 220° |
| 2026-04-30 10:54 | -43.49316 | 172.53068 | 119 ft | 22 kts | 219° |
| 2026-04-30 10:55 | -43.49433 | 172.52935 | 121 ft | 22 kts | 220° |
| 2026-04-30 10:55 | -43.49552 | 172.52797 | 126 ft | 23 kts | 220° |
| 2026-04-30 10:55 | -43.49671 | 172.52662 | 127 ft | 20 kts | 220° |
| 2026-04-30 10:55 | -43.49764 | 172.52558 | 125 ft | 13 kts | 218° |
| 2026-04-30 10:56 | -43.49794 | 172.52434 | 125 ft | 16 kts | 274° |
| 2026-04-30 10:56 | -43.49789 | 172.52280 | 125 ft | 17 kts | 276° |
| 2026-04-30 10:56 | -43.49677 | 172.52305 | 122 ft | 34 kts | 42° |
| 2026-04-30 10:56 | -43.49340 | 172.52693 | 119 ft | 96 kts | 38° |
| 2026-04-30 10:57 | -43.48671 | 172.53464 | 131 ft | 151 kts | 40° |
| 2026-04-30 10:57 | -43.47825 | 172.54401 | 715 ft | 159 kts | 38° |
| 2026-04-30 10:57 | -43.46913 | 172.55363 | 1402 ft | 173 kts | 36° |
| 2026-04-30 10:57 | -43.45809 | 172.56176 | 2004 ft | 188 kts | 25° |
| 2026-04-30 10:58 | -43.44571 | 172.56894 | 2555 ft | 202 kts | 22° |
| 2026-04-30 10:58 | -43.43252 | 172.57663 | 3215 ft | 210 kts | 23° |
| 2026-04-30 10:58 | -43.41907 | 172.58494 | 4152 ft | 213 kts | 24° |
| 2026-04-30 10:58 | -43.40548 | 172.59356 | 5102 ft | 218 kts | 22° |
| 2026-04-30 10:59 | -43.39046 | 172.59611 | 6014 ft | 223 kts | 349° |
| 2026-04-30 10:59 | -43.37705 | 172.58597 | 6950 ft | 225 kts | 310° |
| 2026-04-30 10:59 | -43.37107 | 172.56635 | 7877 ft | 228 kts | 272° |
| 2026-04-30 10:59 | -43.37417 | 172.54498 | 8805 ft | 232 kts | 251° |
| 2026-04-30 11:00 | -43.38111 | 172.52429 | 9503 ft | 247 kts | 240° |
| 2026-04-30 11:00 | -43.39043 | 172.50355 | 10137 ft | 264 kts | 237° |
| 2026-04-30 11:00 | -43.40091 | 172.48188 | 10739 ft | 281 kts | 235° |
| 2026-04-30 11:00 | -43.41221 | 172.45900 | 11281 ft | 298 kts | 235° |
| 2026-04-30 11:01 | -43.42408 | 172.43467 | 11795 ft | 315 kts | 236° |
| 2026-04-30 11:01 | -43.43650 | 172.40882 | 12323 ft | 331 kts | 236° |
| 2026-04-30 11:01 | -43.44924 | 172.38204 | 13091 ft | 337 kts | 236° |
| 2026-04-30 11:01 | -43.46217 | 172.35485 | 13919 ft | 342 kts | 236° |
| 2026-04-30 11:02 | -43.47532 | 172.32729 | 14728 ft | 347 kts | 236° |
| 2026-04-30 11:02 | -43.48864 | 172.29941 | 15535 ft | 351 kts | 236° |
| 2026-04-30 11:02 | -43.50213 | 172.27118 | 16328 ft | 355 kts | 236° |
| 2026-04-30 11:02 | -43.51559 | 172.24295 | 17085 ft | 359 kts | 236° |
| 2026-04-30 11:03 | -43.52937 | 172.21401 | 17822 ft | 364 kts | 236° |
| 2026-04-30 11:03 | -43.54331 | 172.18467 | 18545 ft | 368 kts | 236° |
| 2026-04-30 11:03 | -43.55740 | 172.15500 | 19266 ft | 371 kts | 236° |
| 2026-04-30 11:04 | -43.58593 | 172.09486 | 20664 ft | 378 kts | 236° |
| 2026-04-30 11:04 | -43.60036 | 172.06440 | 21324 ft | 381 kts | 236° |
| 2026-04-30 11:04 | -43.61490 | 172.03365 | 21977 ft | 384 kts | 236° |
| 2026-04-30 11:04 | -43.62953 | 172.00272 | 22612 ft | 386 kts | 236° |
| 2026-04-30 11:05 | -43.64425 | 171.97153 | 23206 ft | 389 kts | 236° |
| 2026-04-30 11:05 | -43.65890 | 171.94047 | 23763 ft | 392 kts | 236° |
| 2026-04-30 11:05 | -43.67383 | 171.90878 | 24313 ft | 395 kts | 236° |
| 2026-04-30 11:05 | -43.68885 | 171.87686 | 24849 ft | 398 kts | 236° |
| 2026-04-30 11:06 | -43.70397 | 171.84470 | 25383 ft | 400 kts | 236° |
| 2026-04-30 11:06 | -43.71918 | 171.81230 | 25898 ft | 402 kts | 236° |
| 2026-04-30 11:06 | -43.73445 | 171.77974 | 26387 ft | 404 kts | 237° |
| 2026-04-30 11:06 | -43.74976 | 171.74705 | 26866 ft | 406 kts | 237° |
| 2026-04-30 11:07 | -43.76494 | 171.71463 | 27319 ft | 408 kts | 237° |
| 2026-04-30 11:07 | -43.78040 | 171.68156 | 27748 ft | 410 kts | 237° |
| 2026-04-30 11:07 | -43.79592 | 171.64832 | 28150 ft | 412 kts | 237° |
| 2026-04-30 11:07 | -43.81151 | 171.61489 | 28559 ft | 414 kts | 237° |
| 2026-04-30 11:08 | -43.82713 | 171.58135 | 28992 ft | 414 kts | 237° |
| 2026-04-30 11:08 | -43.84266 | 171.54797 | 29551 ft | 411 kts | 237° |
| 2026-04-30 11:08 | -43.85809 | 171.51477 | 30081 ft | 408 kts | 237° |
| 2026-04-30 11:08 | -43.87344 | 171.48172 | 30584 ft | 407 kts | 237° |
| 2026-04-30 11:09 | -43.88874 | 171.44872 | 31015 ft | 407 kts | 237° |
| 2026-04-30 11:09 | -43.90403 | 171.41572 | 31448 ft | 406 kts | 237° |
| 2026-04-30 11:09 | -43.91907 | 171.38321 | 31858 ft | 406 kts | 237° |
| 2026-04-30 11:09 | -43.93431 | 171.35024 | 32272 ft | 406 kts | 237° |
| 2026-04-30 11:10 | -43.94954 | 171.31724 | 32625 ft | 407 kts | 237° |
| 2026-04-30 11:10 | -43.98037 | 171.25036 | 32648 ft | 411 kts | 237° |
| 2026-04-30 11:11 | -44.01096 | 171.18382 | 32648 ft | 407 kts | 237° |
| 2026-04-30 11:11 | -44.04095 | 171.11844 | 32648 ft | 402 kts | 237° |
| 2026-04-30 11:12 | -44.07105 | 171.05268 | 32653 ft | 403 kts | 237° |
| 2026-04-30 11:12 | -44.10111 | 170.98684 | 32655 ft | 403 kts | 237° |
| 2026-04-30 11:13 | -44.13116 | 170.92090 | 32647 ft | 403 kts | 237° |
| 2026-04-30 11:13 | -44.16115 | 170.85493 | 32652 ft | 403 kts | 238° |
| 2026-04-30 11:14 | -44.19090 | 170.78933 | 32648 ft | 403 kts | 238° |
| 2026-04-30 11:14 | -44.22082 | 170.72322 | 32651 ft | 403 kts | 238° |
| 2026-04-30 11:15 | -44.25079 | 170.65684 | 32647 ft | 404 kts | 238° |
| 2026-04-30 11:15 | -44.28069 | 170.59046 | 32650 ft | 404 kts | 238° |
| 2026-04-30 11:16 | -44.31041 | 170.52432 | 32640 ft | 404 kts | 238° |
| 2026-04-30 11:16 | -44.34027 | 170.45774 | 32649 ft | 404 kts | 238° |
| 2026-04-30 11:17 | -44.37006 | 170.39114 | 32647 ft | 404 kts | 238° |
| 2026-04-30 11:17 | -44.39984 | 170.32442 | 32642 ft | 404 kts | 238° |
| 2026-04-30 11:18 | -44.42938 | 170.25812 | 32642 ft | 404 kts | 238° |
| 2026-04-30 11:18 | -44.47401 | 170.15793 | 32633 ft | 404 kts | 238° |
| 2026-04-30 11:19 | -44.50361 | 170.09086 | 32648 ft | 404 kts | 238° |
| 2026-04-30 11:19 | -44.53320 | 170.02383 | 32636 ft | 404 kts | 238° |
| 2026-04-30 11:20 | -44.56253 | 169.95725 | 32647 ft | 404 kts | 238° |
| 2026-04-30 11:20 | -44.59202 | 169.89006 | 32646 ft | 403 kts | 238° |
| 2026-04-30 11:21 | -44.62135 | 169.82301 | 32635 ft | 403 kts | 239° |
| 2026-04-30 11:21 | -44.64891 | 169.75441 | 32630 ft | 403 kts | 242° |
| 2026-04-30 11:22 | -44.67575 | 169.68522 | 32639 ft | 404 kts | 241° |
| 2026-04-30 11:22 | -44.70330 | 169.61659 | 32641 ft | 402 kts | 240° |
| 2026-04-30 11:23 | -44.71683 | 169.58274 | 32422 ft | 404 kts | 241° |
| 2026-04-30 11:23 | -44.73052 | 169.54817 | 31878 ft | 404 kts | 241° |
| 2026-04-30 11:23 | -44.75766 | 169.47925 | 30877 ft | 402 kts | 242° |
| 2026-04-30 11:24 | -44.77121 | 169.44493 | 30385 ft | 400 kts | 242° |
| 2026-04-30 11:24 | -44.78472 | 169.41071 | 29872 ft | 399 kts | 242° |
| 2026-04-30 11:24 | -44.79816 | 169.37661 | 29372 ft | 398 kts | 242° |
| 2026-04-30 11:25 | -44.82153 | 169.30649 | 28347 ft | 395 kts | 252° |
| 2026-04-30 11:25 | -44.83012 | 169.26975 | 27792 ft | 394 kts | 252° |
| 2026-04-30 11:25 | -44.84653 | 169.19622 | 26712 ft | 392 kts | 253° |
| 2026-04-30 11:26 | -44.86251 | 169.12447 | 25636 ft | 381 kts | 252° |
| 2026-04-30 11:26 | -44.87048 | 169.08911 | 25103 ft | 376 kts | 252° |
| 2026-04-30 11:26 | -44.87833 | 169.05419 | 24565 ft | 371 kts | 253° |
| 2026-04-30 11:27 | -44.88603 | 169.01970 | 24039 ft | 367 kts | 253° |
| 2026-04-30 11:27 | -44.89361 | 168.98557 | 23500 ft | 363 kts | 253° |
| 2026-04-30 11:27 | -44.90111 | 168.95180 | 22962 ft | 359 kts | 253° |
| 2026-04-30 11:27 | -44.90766 | 168.91811 | 22444 ft | 354 kts | 261° |
| 2026-04-30 11:28 | -44.90826 | 168.84957 | 21379 ft | 347 kts | 272° |
| 2026-04-30 11:28 | -44.90708 | 168.81578 | 20851 ft | 343 kts | 273° |
| 2026-04-30 11:28 | -44.90575 | 168.78232 | 20335 ft | 340 kts | 273° |
| 2026-04-30 11:29 | -44.90450 | 168.74964 | 19811 ft | 336 kts | 273° |
| 2026-04-30 11:29 | -44.90335 | 168.71688 | 19287 ft | 333 kts | 273° |
| 2026-04-30 11:29 | -44.90455 | 168.65260 | 18261 ft | 326 kts | 257° |
| 2026-04-30 11:30 | -44.92237 | 168.59427 | 17210 ft | 321 kts | 246° |
| 2026-04-30 11:30 | -44.93239 | 168.56621 | 16707 ft | 318 kts | 245° |
| 2026-04-30 11:30 | -44.94239 | 168.53847 | 16140 ft | 315 kts | 245° |
| 2026-04-30 11:31 | -44.95225 | 168.51084 | 15468 ft | 317 kts | 246° |
| 2026-04-30 11:31 | -44.96208 | 168.48294 | 14743 ft | 318 kts | 246° |
| 2026-04-30 11:31 | -44.97176 | 168.45535 | 14019 ft | 316 kts | 246° |
| 2026-04-30 11:31 | -44.98158 | 168.42737 | 13471 ft | 310 kts | 246° |
| 2026-04-30 11:32 | -44.99095 | 168.40075 | 12935 ft | 304 kts | 246° |
| 2026-04-30 11:32 | -45.00025 | 168.37434 | 12402 ft | 296 kts | 246° |
| 2026-04-30 11:32 | -45.00930 | 168.34855 | 11884 ft | 290 kts | 246° |
| 2026-04-30 11:33 | -45.02779 | 168.29927 | 10960 ft | 281 kts | 237° |
| 2026-04-30 11:33 | -45.04086 | 168.27877 | 10545 ft | 282 kts | 224° |
| 2026-04-30 11:33 | -45.05703 | 168.26312 | 10179 ft | 278 kts | 210° |
| 2026-04-30 11:33 | -45.07505 | 168.25345 | 10098 ft | 279 kts | 197° |
| 2026-04-30 11:34 | -45.09448 | 168.24968 | 9838 ft | 288 kts | 184° |
| 2026-04-30 11:34 | -45.11440 | 168.25281 | 9503 ft | 290 kts | 169° |
| 2026-04-30 11:34 | -45.13305 | 168.26281 | 9116 ft | 292 kts | 153° |
| 2026-04-30 11:34 | -45.14898 | 168.28070 | 8720 ft | 295 kts | 133° |
| 2026-04-30 11:35 | -45.15994 | 168.30513 | 8374 ft | 295 kts | 112° |
| 2026-04-30 11:35 | -45.16477 | 168.33330 | 7891 ft | 296 kts | 92° |
| 2026-04-30 11:35 | -45.16261 | 168.36202 | 7631 ft | 291 kts | 73° |
| 2026-04-30 11:35 | -45.15476 | 168.38816 | 7219 ft | 285 kts | 60° |
| 2026-04-30 11:36 | -45.14561 | 168.41266 | 6844 ft | 278 kts | 59° |
| 2026-04-30 11:36 | -45.13661 | 168.43644 | 6458 ft | 270 kts | 59° |
| 2026-04-30 11:36 | -45.12780 | 168.45975 | 6104 ft | 266 kts | 59° |
| 2026-04-30 11:36 | -45.11916 | 168.48273 | 5755 ft | 263 kts | 60° |
| 2026-04-30 11:37 | -45.11069 | 168.50538 | 5406 ft | 256 kts | 60° |
| 2026-04-30 11:37 | -45.10252 | 168.52723 | 5138 ft | 246 kts | 60° |
| 2026-04-30 11:37 | -45.09466 | 168.54817 | 4869 ft | 236 kts | 60° |
| 2026-04-30 11:37 | -45.08707 | 168.56835 | 4609 ft | 227 kts | 60° |
| 2026-04-30 11:38 | -45.07993 | 168.58733 | 4378 ft | 210 kts | 60° |
| 2026-04-30 11:38 | -45.07338 | 168.60477 | 4149 ft | 193 kts | 60° |
| 2026-04-30 11:38 | -45.06731 | 168.62089 | 3934 ft | 179 kts | 59° |
| 2026-04-30 11:38 | -45.06159 | 168.63602 | 3632 ft | 173 kts | 59° |
| 2026-04-30 11:39 | -45.05593 | 168.65096 | 3270 ft | 172 kts | 60° |
| 2026-04-30 11:39 | -45.05039 | 168.66562 | 2907 ft | 165 kts | 60° |
| 2026-04-30 11:39 | -45.04392 | 168.67844 | 2630 ft | 154 kts | 45° |
| 2026-04-30 11:39 | -45.03597 | 168.68786 | 2306 ft | 140 kts | 33° |
| 2026-04-30 11:40 | -45.02901 | 168.69665 | 1917 ft | 132 kts | 54° |
| 2026-04-30 11:40 | -45.02466 | 168.70809 | 1685 ft | 134 kts | 68° |
| 2026-04-30 11:40 | -45.02238 | 168.72074 | 1476 ft | 132 kts | 77° |
| 2026-04-30 11:40 | -45.02038 | 168.73307 | 1250 ft | 127 kts | 76° |
| 2026-04-30 11:41 | -45.01870 | 168.74378 | 1168 ft | 74 kts | 78° |
| 2026-04-30 11:41 | -45.01821 | 168.74715 | 1163 ft | 14 kts | 77° |
| 2026-04-30 11:41 | -45.01813 | 168.74788 | 1166 ft | 3 kts | 331° |
| 2026-04-30 11:41 | -45.01828 | 168.74672 | 1163 ft | 16 kts | 257° |
| 2026-04-30 11:42 | -45.01842 | 168.74514 | 1164 ft | 16 kts | 254° |
| 2026-04-30 11:42 | -45.01878 | 168.74357 | 1167 ft | 16 kts | 259° |
| 2026-04-30 11:42 | -45.01903 | 168.74194 | 1163 ft | 13 kts | 256° |
| 2026-04-30 11:42 | -45.01918 | 168.74107 | 1165 ft | 11 kts | 255° |
| 2026-04-30 11:43 | -45.01978 | 168.74041 | 1163 ft | 13 kts | 209° |
| 2026-04-30 11:43 | -45.02037 | 168.74005 | 1161 ft | 7 kts | 192° |
| 2026-04-30 11:43 | -45.02082 | 168.73983 | 1164 ft | 2 kts | 205° |
| 2026-04-30 11:43 | -45.02096 | 168.73974 | 1163 ft | 1 kts | 206° |
| 2026-04-30 11:44 | -45.02105 | 168.73967 | 1163 ft | 0 kts | 206° |